Droop, West Virginia
Current Conditions -  °F | °C
As of 2:15 AM on Thursday 18 Dec 2014 (Local Time) from KLWB Reporting Station
Scattered Clouds Scattered Clouds  
Wind Chill: 23°   Ceiling: Unl
Heat Index: 30°   Visibility: 10mi
Dew Point: 22°   Wind: 8mph
Humidity: 71%   Direction: 290°WNW
Pressure: 30.1"   Gusts: NA
Location:  38.1931°N, 80.2861°W
Report Text: KLWB 180715Z AUTO 29007KT 260V330 10SM SCT020 M01/M06 A3010 RMK AO2 T10101056
Loading
Personal Weather Stations






























Interactive Weather Map New forecast layout! Learn more

10-Day Weather Forecast

Advertisements
Track Severe Weather on mobile